sensor_id;sensor_type;location;lat;lon;timestamp;noise_LAeq;noise_LA_min;noise_LA_max;noise_LA01;noise_LA95
46749;Laerm;33775;47.992;11.864;2023-08-12T00:01:13;37.97;32.93;40.03;;
46749;Laerm;33775;47.992;11.864;2023-08-12T00:03:38;38.09;32.58;40.03;;
46749;Laerm;33775;47.992;11.864;2023-08-12T00:06:04;38.18;32.93;40.23;;
46749;Laerm;33775;47.992;11.864;2023-08-12T00:08:30;38.13;33.44;40.13;;
46749;Laerm;33775;47.992;11.864;2023-08-12T00:10:55;38.06;32.35;39.81;;
46749;Laerm;33775;47.992;11.864;2023-08-12T00:13:20;38.07;33.44;40.33;;
46749;Laerm;33775;47.992;11.864;2023-08-12T00:15:45;38.02;29.92;40.03;;
46749;Laerm;33775;47.992;11.864;2023-08-12T00:18:11;37.90;29.92;40.03;;
46749;Laerm;33775;47.992;11.864;2023-08-12T00:20:36;37.85;31.68;39.81;;
46749;Laerm;33775;47.992;11.864;2023-08-12T00:23:03;37.79;32.35;40.13;;
46749;Laerm;33775;47.992;11.864;2023-08-12T00:25:29;37.80;30.89;39.92;;
46749;Laerm;33775;47.992;11.864;2023-08-12T00:27:54;37.83;32.93;40.23;;
46749;Laerm;33775;47.992;11.864;2023-08-12T00:30:20;37.90;32.35;39.92;;
46749;Laerm;33775;47.992;11.864;2023-08-12T00:32:45;37.99;32.00;39.92;;
46749;Laerm;33775;47.992;11.864;2023-08-12T00:35:10;37.93;32.35;40.03;;
46749;Laerm;33775;47.992;11.864;2023-08-12T00:37:35;38.06;31.68;40.13;;
46749;Laerm;33775;47.992;11.864;2023-08-12T00:40:00;38.09;32.35;40.43;;
46749;Laerm;33775;47.992;11.864;2023-08-12T00:42:26;38.00;32.35;40.33;;
46749;Laerm;33775;47.992;11.864;2023-08-12T00:44:51;37.89;31.68;40.43;;
46749;Laerm;33775;47.992;11.864;2023-08-12T00:47:16;37.58;31.68;40.03;;
46749;Laerm;33775;47.992;11.864;2023-08-12T00:49:41;37.36;31.68;40.03;;
46749;Laerm;33775;47.992;11.864;2023-08-12T00:52:09;40.13;32.35;41.82;;
46749;Laerm;33775;47.992;11.864;2023-08-12T00:54:35;40.39;38.67;42.03;;
46749;Laerm;33775;47.992;11.864;2023-08-12T00:57:00;40.41;38.67;41.89;;
46749;Laerm;33775;47.992;11.864;2023-08-12T00:59:25;40.46;38.95;41.68;;
46749;Laerm;33775;47.992;11.864;2023-08-12T01:01:51;40.51;38.95;42.03;;
46749;Laerm;33775;47.992;11.864;2023-08-12T01:04:16;40.49;38.87;41.82;;
46749;Laerm;33775;47.992;11.864;2023-08-12T01:06:41;40.46;38.95;41.61;;
46749;Laerm;33775;47.992;11.864;2023-08-12T01:09:06;40.38;38.95;41.61;;
46749;Laerm;33775;47.992;11.864;2023-08-12T01:11:36;40.34;38.81;41.61;;
46749;Laerm;33775;47.992;11.864;2023-08-12T01:16:30;40.42;38.95;41.53;;
46749;Laerm;33775;47.992;11.864;2023-08-12T01:18:58;40.47;38.95;41.68;;
46749;Laerm;33775;47.992;11.864;2023-08-12T01:21:23;40.42;38.67;41.68;;
46749;Laerm;33775;47.992;11.864;2023-08-12T01:23:49;40.40;38.95;41.68;;
46749;Laerm;33775;47.992;11.864;2023-08-12T01:26:15;40.39;38.81;41.68;;
46749;Laerm;33775;47.992;11.864;2023-08-12T01:28:40;40.25;38.60;41.68;;
46749;Laerm;33775;47.992;11.864;2023-08-12T01:31:11;40.23;37.88;41.82;;
46749;Laerm;33775;47.992;11.864;2023-08-12T01:33:45;40.18;37.70;41.46;;
46749;Laerm;33775;47.992;11.864;2023-08-12T01:38:36;40.44;38.81;41.96;;
46749;Laerm;33775;47.992;11.864;2023-08-12T01:41:03;40.51;38.87;41.82;;
46749;Laerm;33775;47.992;11.864;2023-08-12T01:43:28;40.54;39.08;41.82;;
46749;Laerm;33775;47.992;11.864;2023-08-12T01:45:54;40.53;38.95;41.96;;
46749;Laerm;33775;47.992;11.864;2023-08-12T01:48:19;40.54;39.21;41.75;;
46749;Laerm;33775;47.992;11.864;2023-08-12T01:50:48;40.51;38.95;42.03;;
46749;Laerm;33775;47.992;11.864;2023-08-12T01:53:13;40.46;38.67;42.09;;
46749;Laerm;33775;47.992;11.864;2023-08-12T01:55:38;40.47;38.95;41.96;;
46749;Laerm;33775;47.992;11.864;2023-08-12T01:58:03;40.42;38.81;41.89;;
46749;Laerm;33775;47.992;11.864;2023-08-12T02:00:29;40.41;38.95;41.89;;
46749;Laerm;33775;47.992;11.864;2023-08-12T02:02:54;40.42;38.37;41.68;;
46749;Laerm;33775;47.992;11.864;2023-08-12T02:05:19;40.33;38.52;42.03;;
46749;Laerm;33775;47.992;11.864;2023-08-12T02:07:44;40.30;38.52;42.09;;
46749;Laerm;33775;47.992;11.864;2023-08-12T02:10:10;40.30;38.52;41.75;;
46749;Laerm;33775;47.992;11.864;2023-08-12T02:12:35;40.39;38.52;41.75;;
46749;Laerm;33775;47.992;11.864;2023-08-12T02:15:00;40.46;38.81;41.82;;
46749;Laerm;33775;47.992;11.864;2023-08-12T02:17:25;40.47;38.67;42.03;;
46749;Laerm;33775;47.992;11.864;2023-08-12T02:19:51;40.32;38.21;41.82;;
46749;Laerm;33775;47.992;11.864;2023-08-12T02:22:16;40.34;38.52;41.96;;
46749;Laerm;33775;47.992;11.864;2023-08-12T02:24:41;40.36;38.52;41.89;;
46749;Laerm;33775;47.992;11.864;2023-08-12T02:27:06;40.43;38.05;42.22;;
46749;Laerm;33775;47.992;11.864;2023-08-12T02:29:31;40.43;38.37;41.96;;
46749;Laerm;33775;47.992;11.864;2023-08-12T02:31:56;40.53;38.52;42.29;;
46749;Laerm;33775;47.992;11.864;2023-08-12T02:34:22;40.53;38.81;42.09;;
46749;Laerm;33775;47.992;11.864;2023-08-12T02:36:47;40.52;38.52;42.16;;
46749;Laerm;33775;47.992;11.864;2023-08-12T02:39:12;40.54;38.81;42.03;;
46749;Laerm;33775;47.992;11.864;2023-08-12T02:41:37;40.50;38.81;41.96;;
46749;Laerm;33775;47.992;11.864;2023-08-12T02:44:02;40.40;38.52;41.96;;
46749;Laerm;33775;47.992;11.864;2023-08-12T02:46:28;40.18;37.88;41.53;;
46749;Laerm;33775;47.992;11.864;2023-08-12T02:48:53;40.25;38.21;41.68;;
46749;Laerm;33775;47.992;11.864;2023-08-12T02:51:18;40.38;38.67;41.82;;
46749;Laerm;33775;47.992;11.864;2023-08-12T02:53:43;40.45;38.52;42.09;;
46749;Laerm;33775;47.992;11.864;2023-08-12T02:56:08;40.52;38.67;42.03;;
46749;Laerm;33775;47.992;11.864;2023-08-12T02:58:33;40.49;38.67;41.75;;
46749;Laerm;33775;47.992;11.864;2023-08-12T03:00:59;40.44;38.67;42.16;;
46749;Laerm;33775;47.992;11.864;2023-08-12T03:03:24;40.20;36.91;42.35;;
46749;Laerm;33775;47.992;11.864;2023-08-12T03:05:49;40.01;37.87;41.61;;
46749;Laerm;33775;47.992;11.864;2023-08-12T03:08:15;40.07;37.88;41.75;;
46749;Laerm;33775;47.992;11.864;2023-08-12T03:10:40;40.26;37.88;41.68;;
46749;Laerm;33775;47.992;11.864;2023-08-12T03:13:05;40.31;38.21;42.16;;
46749;Laerm;33775;47.992;11.864;2023-08-12T03:15:30;40.27;38.37;42.29;;
46749;Laerm;33775;47.992;11.864;2023-08-12T03:17:56;40.07;37.70;41.89;;
46749;Laerm;33775;47.992;11.864;2023-08-12T03:20:21;39.64;36.45;41.53;;
46749;Laerm;33775;47.992;11.864;2023-08-12T03:22:46;39.28;36.20;41.38;;
46749;Laerm;33775;47.992;11.864;2023-08-12T03:25:12;39.32;36.20;41.14;;
46749;Laerm;33775;47.992;11.864;2023-08-12T03:27:39;39.61;36.69;41.38;;
46749;Laerm;33775;47.992;11.864;2023-08-12T03:30:05;39.76;36.77;41.46;;
46749;Laerm;33775;47.992;11.864;2023-08-12T03:32:30;39.80;37.52;41.46;;
46749;Laerm;33775;47.992;11.864;2023-08-12T03:34:55;40.08;37.70;41.75;;
46749;Laerm;33775;47.992;11.864;2023-08-12T03:37:20;40.07;37.88;41.61;;
46749;Laerm;33775;47.992;11.864;2023-08-12T03:39:46;39.67;37.32;41.30;;
46749;Laerm;33775;47.992;11.864;2023-08-12T03:42:11;39.70;36.91;41.61;;
46749;Laerm;33775;47.992;11.864;2023-08-12T03:44:36;39.98;37.70;41.53;;
46749;Laerm;33775;47.992;11.864;2023-08-12T03:47:01;40.01;37.88;41.68;;
46749;Laerm;33775;47.992;11.864;2023-08-12T03:49:26;39.70;37.52;41.30;;
46749;Laerm;33775;47.992;11.864;2023-08-12T03:51:52;39.69;37.12;41.46;;
46749;Laerm;33775;47.992;11.864;2023-08-12T03:54:18;39.80;37.32;41.61;;
46749;Laerm;33775;47.992;11.864;2023-08-12T03:56:43;39.64;37.12;41.46;;
46749;Laerm;33775;47.992;11.864;2023-08-12T03:59:08;39.53;37.12;41.38;;
46749;Laerm;33775;47.992;11.864;2023-08-12T04:01:33;39.67;36.69;41.53;;
46749;Laerm;33775;47.992;11.864;2023-08-12T04:03:59;39.66;36.45;41.68;;
46749;Laerm;33775;47.992;11.864;2023-08-12T04:06:24;39.90;36.91;41.68;;
46749;Laerm;33775;47.992;11.864;2023-08-12T04:08:49;40.13;38.21;41.82;;
46749;Laerm;33775;47.992;11.864;2023-08-12T04:11:14;40.26;38.05;41.96;;
46749;Laerm;33775;47.992;11.864;2023-08-12T04:13:39;40.38;38.52;42.09;;
46749;Laerm;33775;47.992;11.864;2023-08-12T04:16:05;40.36;38.37;42.03;;
46749;Laerm;33775;47.992;11.864;2023-08-12T04:18:30;40.37;38.52;41.96;;
46749;Laerm;33775;47.992;11.864;2023-08-12T04:20:55;40.35;38.21;41.82;;
46749;Laerm;33775;47.992;11.864;2023-08-12T04:23:20;40.28;38.18;42.16;;
46749;Laerm;33775;47.992;11.864;2023-08-12T04:25:46;40.25;37.70;42.16;;
46749;Laerm;33775;47.992;11.864;2023-08-12T04:28:11;40.34;38.52;41.96;;
46749;Laerm;33775;47.992;11.864;2023-08-12T04:30:41;40.38;38.67;41.82;;
46749;Laerm;33775;47.992;11.864;2023-08-12T04:33:06;40.15;37.70;41.75;;
46749;Laerm;33775;47.992;11.864;2023-08-12T04:35:31;40.10;37.88;41.96;;
46749;Laerm;33775;47.992;11.864;2023-08-12T04:37:57;40.22;38.05;41.75;;
46749;Laerm;33775;47.992;11.864;2023-08-12T04:40:22;40.33;37.70;41.82;;
46749;Laerm;33775;47.992;11.864;2023-08-12T04:42:47;40.33;38.37;41.89;;
46749;Laerm;33775;47.992;11.864;2023-08-12T04:45:13;40.34;38.37;42.03;;
46749;Laerm;33775;47.992;11.864;2023-08-12T04:47:38;40.19;38.05;41.75;;
46749;Laerm;33775;47.992;11.864;2023-08-12T04:50:03;40.20;38.32;41.96;;
46749;Laerm;33775;47.992;11.864;2023-08-12T04:52:28;40.20;38.05;41.68;;
46749;Laerm;33775;47.992;11.864;2023-08-12T04:54:53;40.14;37.88;41.82;;
46749;Laerm;33775;47.992;11.864;2023-08-12T04:57:19;40.17;38.05;41.82;;
46749;Laerm;33775;47.992;11.864;2023-08-12T04:59:44;40.15;37.70;41.75;;
46749;Laerm;33775;47.992;11.864;2023-08-12T05:02:09;40.12;37.52;41.75;;
46749;Laerm;33775;47.992;11.864;2023-08-12T05:04:34;40.09;38.05;41.89;;
46749;Laerm;33775;47.992;11.864;2023-08-12T05:06:59;39.94;37.32;41.75;;
46749;Laerm;33775;47.992;11.864;2023-08-12T05:09:25;40.02;38.05;41.53;;
46749;Laerm;33775;47.992;11.864;2023-08-12T05:11:50;40.11;37.52;41.75;;
46749;Laerm;33775;47.992;11.864;2023-08-12T05:14:15;40.29;38.05;41.89;;
46749;Laerm;33775;47.992;11.864;2023-08-12T05:16:40;40.29;38.21;41.75;;
46749;Laerm;33775;47.992;11.864;2023-08-12T05:19:05;40.25;37.88;42.09;;
46749;Laerm;33775;47.992;11.864;2023-08-12T05:21:30;40.35;37.88;41.89;;
46749;Laerm;33775;47.992;11.864;2023-08-12T05:23:56;40.40;38.21;41.96;;
46749;Laerm;33775;47.992;11.864;2023-08-12T05:26:21;40.51;38.37;42.03;;
46749;Laerm;33775;47.992;11.864;2023-08-12T05:28:46;40.56;38.67;42.22;;
46749;Laerm;33775;47.992;11.864;2023-08-12T05:31:11;40.55;38.81;42.09;;
46749;Laerm;33775;47.992;11.864;2023-08-12T05:33:36;40.56;38.67;42.16;;
46749;Laerm;33775;47.992;11.864;2023-08-12T05:36:02;40.57;38.95;42.03;;
46749;Laerm;33775;47.992;11.864;2023-08-12T05:38:27;39.93;37.70;41.46;;
46749;Laerm;33775;47.992;11.864;2023-08-12T05:40:52;39.62;37.88;41.06;;
46749;Laerm;33775;47.992;11.864;2023-08-12T05:43:18;39.50;37.70;40.89;;
46749;Laerm;33775;47.992;11.864;2023-08-12T05:45:43;39.59;37.88;40.80;;
46749;Laerm;33775;47.992;11.864;2023-08-12T05:48:08;39.41;37.52;40.80;;
46749;Laerm;33775;47.992;11.864;2023-08-12T05:50:33;38.45;32.93;40.53;;
46749;Laerm;33775;47.992;11.864;2023-08-12T05:52:58;37.10;32.35;39.34;;
46749;Laerm;33775;47.992;11.864;2023-08-12T05:55:24;37.26;33.09;40.13;;
46749;Laerm;33775;47.992;11.864;2023-08-12T05:57:49;37.39;32.35;40.13;;
46749;Laerm;33775;47.992;11.864;2023-08-12T06:00:14;37.27;32.35;39.92;;
46749;Laerm;33775;47.992;11.864;2023-08-12T06:02:39;37.21;32.93;39.81;;
46749;Laerm;33775;47.992;11.864;2023-08-12T06:05:05;37.15;31.68;39.70;;
46749;Laerm;33775;47.992;11.864;2023-08-12T06:07:30;37.16;32.35;40.03;;
46749;Laerm;33775;47.992;11.864;2023-08-12T06:09:55;37.29;32.93;40.13;;
46749;Laerm;33775;47.992;11.864;2023-08-12T06:12:20;37.36;32.93;40.23;;
46749;Laerm;33775;47.992;11.864;2023-08-12T06:14:45;37.40;33.44;39.92;;
46749;Laerm;33775;47.992;11.864;2023-08-12T06:17:11;37.40;33.44;40.23;;
46749;Laerm;33775;47.992;11.864;2023-08-12T06:19:36;37.30;32.93;39.81;;
46749;Laerm;33775;47.992;11.864;2023-08-12T06:22:01;37.18;33.44;39.70;;
46749;Laerm;33775;47.992;11.864;2023-08-12T06:24:28;37.07;32.93;39.92;;
46749;Laerm;33775;47.992;11.864;2023-08-12T06:26:53;37.03;32.35;39.92;;
46749;Laerm;33775;47.992;11.864;2023-08-12T06:29:18;36.97;32.00;39.92;;
46749;Laerm;33775;47.992;11.864;2023-08-12T06:31:43;36.98;32.93;39.46;;
46749;Laerm;33775;47.992;11.864;2023-08-12T06:34:08;36.89;32.93;39.58;;
46749;Laerm;33775;47.992;11.864;2023-08-12T06:36:34;36.91;32.35;39.58;;
46749;Laerm;33775;47.992;11.864;2023-08-12T06:38:59;36.94;31.68;39.70;;
46749;Laerm;33775;47.992;11.864;2023-08-12T06:41:24;36.99;31.68;39.46;;
46749;Laerm;33775;47.992;11.864;2023-08-12T06:43:49;36.99;32.93;39.58;;
46749;Laerm;33775;47.992;11.864;2023-08-12T06:46:14;37.06;33.44;39.57;;
46749;Laerm;33775;47.992;11.864;2023-08-12T06:48:40;37.08;32.93;39.70;;
46749;Laerm;33775;47.992;11.864;2023-08-12T06:51:05;37.05;32.35;40.03;;
46749;Laerm;33775;47.992;11.864;2023-08-12T06:53:35;37.04;31.68;40.13;;
46749;Laerm;33775;47.992;11.864;2023-08-12T06:56:01;37.00;32.93;40.03;;
46749;Laerm;33775;47.992;11.864;2023-08-12T06:58:26;36.99;32.35;39.70;;
46749;Laerm;33775;47.992;11.864;2023-08-12T07:00:51;37.19;32.35;40.03;;
46749;Laerm;33775;47.992;11.864;2023-08-12T07:03:18;37.42;33.44;40.03;;
46749;Laerm;33775;47.992;11.864;2023-08-12T07:05:43;37.22;32.93;40.03;;
46749;Laerm;33775;47.992;11.864;2023-08-12T07:08:08;37.23;32.93;40.03;;
46749;Laerm;33775;47.992;11.864;2023-08-12T07:10:33;37.34;32.93;40.23;;
46749;Laerm;33775;47.992;11.864;2023-08-12T07:12:58;37.40;32.93;39.99;;
46749;Laerm;33775;47.992;11.864;2023-08-12T07:15:24;37.46;33.90;40.33;;
46749;Laerm;33775;47.992;11.864;2023-08-12T07:17:49;37.48;33.90;40.33;;
46749;Laerm;33775;47.992;11.864;2023-08-12T07:20:14;37.50;32.35;40.43;;
46749;Laerm;33775;47.992;11.864;2023-08-12T07:22:39;37.50;33.90;40.03;;
46749;Laerm;33775;47.992;11.864;2023-08-12T07:25:05;37.51;33.90;40.13;;
46749;Laerm;33775;47.992;11.864;2023-08-12T07:27:30;37.57;33.90;40.23;;
46749;Laerm;33775;47.992;11.864;2023-08-12T07:29:55;37.54;32.93;39.92;;
46749;Laerm;33775;47.992;11.864;2023-08-12T07:32:21;37.54;33.44;40.53;;
46749;Laerm;33775;47.992;11.864;2023-08-12T07:34:46;37.53;33.44;40.13;;
46749;Laerm;33775;47.992;11.864;2023-08-12T07:37:11;37.54;32.35;40.23;;
46749;Laerm;33775;47.992;11.864;2023-08-12T07:39:36;37.52;33.44;40.33;;
46749;Laerm;33775;47.992;11.864;2023-08-12T07:42:01;37.51;32.35;40.62;;
46749;Laerm;33775;47.992;11.864;2023-08-12T07:44:27;37.51;33.44;40.33;;
46749;Laerm;33775;47.992;11.864;2023-08-12T07:46:52;37.51;31.68;40.03;;
46749;Laerm;33775;47.992;11.864;2023-08-12T07:49:17;37.50;33.44;40.53;;
46749;Laerm;33775;47.992;11.864;2023-08-12T07:51:42;37.48;32.93;40.18;;
46749;Laerm;33775;47.992;11.864;2023-08-12T07:54:07;37.50;32.35;40.13;;
46749;Laerm;33775;47.992;11.864;2023-08-12T07:56:33;37.48;32.58;40.33;;
46749;Laerm;33775;47.992;11.864;2023-08-12T07:58:58;37.47;33.44;40.13;;
46749;Laerm;33775;47.992;11.864;2023-08-12T08:01:23;37.49;32.93;40.23;;
46749;Laerm;33775;47.992;11.864;2023-08-12T08:03:55;37.48;32.35;40.33;;
46749;Laerm;33775;47.992;11.864;2023-08-12T08:06:22;37.47;32.93;40.43;;
46749;Laerm;33775;47.992;11.864;2023-08-12T08:08:48;37.46;33.44;40.62;;
46749;Laerm;33775;47.992;11.864;2023-08-12T08:11:13;37.43;32.35;40.43;;
46749;Laerm;33775;47.992;11.864;2023-08-12T08:13:38;37.41;30.89;40.03;;
46749;Laerm;33775;47.992;11.864;2023-08-12T08:16:04;37.42;33.44;40.33;;
46749;Laerm;33775;47.992;11.864;2023-08-12T08:18:29;37.39;32.35;40.43;;
46749;Laerm;33775;47.992;11.864;2023-08-12T08:20:54;37.42;31.68;40.43;;
46749;Laerm;33775;47.992;11.864;2023-08-12T08:23:19;37.39;32.35;40.13;;
46749;Laerm;33775;47.992;11.864;2023-08-12T08:25:45;37.40;32.93;40.08;;
46749;Laerm;33775;47.992;11.864;2023-08-12T08:28:10;37.43;32.35;40.53;;
46749;Laerm;33775;47.992;11.864;2023-08-12T08:30:36;37.40;32.93;40.13;;
46749;Laerm;33775;47.992;11.864;2023-08-12T08:33:01;37.39;32.35;40.03;;
46749;Laerm;33775;47.992;11.864;2023-08-12T08:35:26;37.36;31.68;40.13;;
46749;Laerm;33775;47.992;11.864;2023-08-12T08:37:52;37.33;32.93;40.33;;
46749;Laerm;33775;47.992;11.864;2023-08-12T08:40:18;37.39;30.89;40.53;;
46749;Laerm;33775;47.992;11.864;2023-08-12T08:42:43;37.36;32.35;40.33;;
46749;Laerm;33775;47.992;11.864;2023-08-12T08:45:12;37.35;28.67;40.23;;
46749;Laerm;33775;47.992;11.864;2023-08-12T08:47:37;37.38;32.35;40.53;;
46749;Laerm;33775;47.992;11.864;2023-08-12T08:50:03;37.43;33.44;40.23;;
46749;Laerm;33775;47.992;11.864;2023-08-12T08:52:28;37.41;30.89;40.23;;
46749;Laerm;33775;47.992;11.864;2023-08-12T08:54:54;37.39;33.44;40.13;;
46749;Laerm;33775;47.992;11.864;2023-08-12T08:57:19;37.36;31.68;40.03;;
46749;Laerm;33775;47.992;11.864;2023-08-12T08:59:44;37.35;30.89;40.23;;
46749;Laerm;33775;47.992;11.864;2023-08-12T09:02:15;37.29;32.35;40.43;;
46749;Laerm;33775;47.992;11.864;2023-08-12T09:04:41;37.32;32.35;40.43;;
46749;Laerm;33775;47.992;11.864;2023-08-12T09:07:06;37.30;32.35;40.23;;
46749;Laerm;33775;47.992;11.864;2023-08-12T09:09:32;37.32;32.93;40.43;;
46749;Laerm;33775;47.992;11.864;2023-08-12T09:11:58;37.25;31.68;40.13;;
46749;Laerm;33775;47.992;11.864;2023-08-12T09:14:23;37.23;32.35;40.03;;
46749;Laerm;33775;47.992;11.864;2023-08-12T09:16:48;37.27;29.92;40.13;;
46749;Laerm;33775;47.992;11.864;2023-08-12T09:19:13;37.26;32.93;40.43;;
46749;Laerm;33775;47.992;11.864;2023-08-12T09:21:39;37.26;29.92;40.03;;
46749;Laerm;33775;47.992;11.864;2023-08-12T09:24:04;37.17;32.35;40.13;;
46749;Laerm;33775;47.992;11.864;2023-08-12T09:26:29;37.17;30.89;40.23;;
46749;Laerm;33775;47.992;11.864;2023-08-12T09:28:55;37.18;31.68;40.62;;
46749;Laerm;33775;47.992;11.864;2023-08-12T09:31:24;37.28;32.93;40.13;;
46749;Laerm;33775;47.992;11.864;2023-08-12T09:33:50;37.33;31.68;40.53;;
46749;Laerm;33775;47.992;11.864;2023-08-12T09:36:15;37.31;32.93;40.23;;
46749;Laerm;33775;47.992;11.864;2023-08-12T09:38:41;37.35;31.68;40.43;;
46749;Laerm;33775;47.992;11.864;2023-08-12T09:41:06;37.28;32.35;40.23;;
46749;Laerm;33775;47.992;11.864;2023-08-12T09:43:31;37.27;29.92;40.13;;
46749;Laerm;33775;47.992;11.864;2023-08-12T09:45:56;37.26;29.92;40.33;;
46749;Laerm;33775;47.992;11.864;2023-08-12T09:48:25;37.26;32.35;40.13;;
46749;Laerm;33775;47.992;11.864;2023-08-12T09:50:51;37.27;31.68;40.23;;
46749;Laerm;33775;47.992;11.864;2023-08-12T09:53:17;37.30;31.68;40.33;;
46749;Laerm;33775;47.992;11.864;2023-08-12T09:55:42;37.29;32.93;40.03;;
46749;Laerm;33775;47.992;11.864;2023-08-12T09:58:08;37.34;32.35;40.53;;
46749;Laerm;33775;47.992;11.864;2023-08-12T10:00:34;37.33;32.93;40.33;;
46749;Laerm;33775;47.992;11.864;2023-08-12T10:03:00;37.33;31.68;40.13;;
46749;Laerm;33775;47.992;11.864;2023-08-12T10:05:28;37.34;33.44;40.23;;
46749;Laerm;33775;47.992;11.864;2023-08-12T10:07:56;37.39;31.68;40.33;;
46749;Laerm;33775;47.992;11.864;2023-08-12T10:10:21;37.40;31.68;40.23;;
46749;Laerm;33775;47.992;11.864;2023-08-12T10:12:50;37.37;32.93;40.43;;
46749;Laerm;33775;47.992;11.864;2023-08-12T10:15:15;37.38;32.35;39.92;;
46749;Laerm;33775;47.992;11.864;2023-08-12T10:17:40;37.33;32.93;40.33;;
46749;Laerm;33775;47.992;11.864;2023-08-12T10:20:06;37.37;32.93;40.03;;
46749;Laerm;33775;47.992;11.864;2023-08-12T10:22:33;37.37;31.68;40.43;;
46749;Laerm;33775;47.992;11.864;2023-08-12T10:25:01;37.40;32.93;40.23;;
46749;Laerm;33775;47.992;11.864;2023-08-12T10:27:27;37.35;32.35;40.23;;
46749;Laerm;33775;47.992;11.864;2023-08-12T10:29:52;37.41;32.93;40.89;;
46749;Laerm;33775;47.992;11.864;2023-08-12T10:32:17;37.32;32.35;40.27;;
46749;Laerm;33775;47.992;11.864;2023-08-12T10:34:43;37.34;31.68;40.13;;
46749;Laerm;33775;47.992;11.864;2023-08-12T10:37:09;37.32;32.35;39.92;;
46749;Laerm;33775;47.992;11.864;2023-08-12T10:39:35;37.33;32.93;40.23;;
46749;Laerm;33775;47.992;11.864;2023-08-12T10:42:00;37.35;32.35;40.36;;
46749;Laerm;33775;47.992;11.864;2023-08-12T10:44:49;37.39;31.68;40.18;;
46749;Laerm;33775;47.992;11.864;2023-08-12T10:47:15;37.36;31.68;40.43;;
46749;Laerm;33775;47.992;11.864;2023-08-12T10:49:44;37.33;32.93;40.03;;
46749;Laerm;33775;47.992;11.864;2023-08-12T10:57:40;37.29;32.35;40.53;;
46749;Laerm;33775;47.992;11.864;2023-08-12T11:00:06;37.29;32.35;40.03;;
46749;Laerm;33775;47.992;11.864;2023-08-12T11:02:36;37.28;30.89;40.89;;
46749;Laerm;33775;47.992;11.864;2023-08-12T11:05:03;37.29;30.89;40.23;;
46749;Laerm;33775;47.992;11.864;2023-08-12T11:10:03;37.23;32.35;39.81;;
46749;Laerm;33775;47.992;11.864;2023-08-12T11:12:33;37.40;32.93;40.23;;
46749;Laerm;33775;47.992;11.864;2023-08-12T11:14:59;37.33;30.89;40.33;;
46749;Laerm;33775;47.992;11.864;2023-08-12T11:20:00;37.24;30.89;40.13;;
46749;Laerm;33775;47.992;11.864;2023-08-12T11:22:25;37.29;32.35;40.43;;
46749;Laerm;33775;47.992;11.864;2023-08-12T11:24:50;37.32;32.35;40.23;;
46749;Laerm;33775;47.992;11.864;2023-08-12T11:27:16;37.29;30.89;40.43;;
46749;Laerm;33775;47.992;11.864;2023-08-12T11:29:41;37.39;32.35;40.53;;
46749;Laerm;33775;47.992;11.864;2023-08-12T11:32:06;37.08;30.89;40.03;;
46749;Laerm;33775;47.992;11.864;2023-08-12T11:34:31;37.10;29.92;40.33;;
46749;Laerm;33775;47.992;11.864;2023-08-12T11:36:57;37.18;32.35;40.89;;
46749;Laerm;33775;47.992;11.864;2023-08-12T11:39:23;37.29;30.89;40.03;;
46749;Laerm;33775;47.992;11.864;2023-08-12T11:41:48;37.27;30.89;40.80;;
46749;Laerm;33775;47.992;11.864;2023-08-12T11:44:15;37.22;32.35;40.23;;
46749;Laerm;33775;47.992;11.864;2023-08-12T11:46:41;37.28;30.89;40.23;;
46749;Laerm;33775;47.992;11.864;2023-08-12T11:49:06;37.18;31.68;43.34;;
46749;Laerm;33775;47.992;11.864;2023-08-12T11:51:31;37.21;30.89;40.43;;
46749;Laerm;33775;47.992;11.864;2023-08-12T11:53:56;37.18;31.68;40.03;;
46749;Laerm;33775;47.992;11.864;2023-08-12T11:56:22;37.14;28.67;40.23;;
46749;Laerm;33775;47.992;11.864;2023-08-12T11:58:50;37.12;31.68;40.13;;
46749;Laerm;33775;47.992;11.864;2023-08-12T12:01:15;37.19;30.89;40.33;;
46749;Laerm;33775;47.992;11.864;2023-08-12T12:03:41;37.16;31.68;40.13;;
46749;Laerm;33775;47.992;11.864;2023-08-12T12:06:06;36.99;30.89;40.62;;
46749;Laerm;33775;47.992;11.864;2023-08-12T12:08:32;36.92;30.89;40.43;;
46749;Laerm;33775;47.992;11.864;2023-08-12T12:10:57;36.91;31.68;40.03;;
46749;Laerm;33775;47.992;11.864;2023-08-12T12:13:29;36.96;31.68;40.03;;
46749;Laerm;33775;47.992;11.864;2023-08-12T12:15:54;37.06;29.92;40.03;;
46749;Laerm;33775;47.992;11.864;2023-08-12T12:18:20;37.12;31.68;39.92;;
46749;Laerm;33775;47.992;11.864;2023-08-12T12:20:54;37.17;30.89;40.03;;
46749;Laerm;33775;47.992;11.864;2023-08-12T12:23:20;37.13;28.67;39.92;;
46749;Laerm;33775;47.992;11.864;2023-08-12T12:25:46;37.14;29.92;40.23;;
46749;Laerm;33775;47.992;11.864;2023-08-12T12:28:11;37.04;30.89;40.23;;
46749;Laerm;33775;47.992;11.864;2023-08-12T12:30:36;37.07;31.68;40.03;;
46749;Laerm;33775;47.992;11.864;2023-08-12T12:33:01;37.01;30.54;40.03;;
46749;Laerm;33775;47.992;11.864;2023-08-12T12:35:26;37.02;29.92;40.33;;
46749;Laerm;33775;47.992;11.864;2023-08-12T12:37:52;37.07;29.92;40.13;;
46749;Laerm;33775;47.992;11.864;2023-08-12T12:40:17;37.02;30.89;40.03;;
46749;Laerm;33775;47.992;11.864;2023-08-12T12:42:42;37.08;32.35;40.62;;
46749;Laerm;33775;47.992;11.864;2023-08-12T12:45:07;37.06;29.92;40.13;;
46749;Laerm;33775;47.992;11.864;2023-08-12T12:47:33;36.99;29.92;40.03;;
46749;Laerm;33775;47.992;11.864;2023-08-12T12:49:58;36.98;30.89;40.13;;
46749;Laerm;33775;47.992;11.864;2023-08-12T12:52:23;36.99;30.89;39.81;;
46749;Laerm;33775;47.992;11.864;2023-08-12T12:54:48;36.93;31.68;40.13;;
46749;Laerm;33775;47.992;11.864;2023-08-12T12:57:13;36.94;31.68;40.13;;
46749;Laerm;33775;47.992;11.864;2023-08-12T12:59:39;36.95;31.68;40.13;;
46749;Laerm;33775;47.992;11.864;2023-08-12T13:02:04;36.93;29.92;39.92;;
46749;Laerm;33775;47.992;11.864;2023-08-12T13:04:29;37.00;29.92;39.92;;
46749;Laerm;33775;47.992;11.864;2023-08-12T13:06:55;36.99;30.89;48.02;;
46749;Laerm;33775;47.992;11.864;2023-08-12T13:09:20;36.97;29.92;40.03;;
46749;Laerm;33775;47.992;11.864;2023-08-12T13:11:45;36.99;30.89;40.03;;
46749;Laerm;33775;47.992;11.864;2023-08-12T13:14:10;36.97;30.89;39.92;;
46749;Laerm;33775;47.992;11.864;2023-08-12T13:16:35;36.97;29.92;39.81;;
46749;Laerm;33775;47.992;11.864;2023-08-12T13:19:01;36.96;31.68;39.92;;
46749;Laerm;33775;47.992;11.864;2023-08-12T13:21:26;36.97;30.89;40.23;;
46749;Laerm;33775;47.992;11.864;2023-08-12T13:23:51;36.97;29.92;40.13;;
46749;Laerm;33775;47.992;11.864;2023-08-12T13:26:17;36.98;30.89;40.96;;
46749;Laerm;33775;47.992;11.864;2023-08-12T13:28:43;36.90;23.90;39.92;;
46749;Laerm;33775;47.992;11.864;2023-08-12T13:31:08;36.95;29.92;40.03;;
46749;Laerm;33775;47.992;11.864;2023-08-12T13:33:33;36.88;26.91;39.92;;
46749;Laerm;33775;47.992;11.864;2023-08-12T13:35:59;36.84;30.89;39.70;;
46749;Laerm;33775;47.992;11.864;2023-08-12T13:38:24;36.80;28.67;39.92;;